South Royalton, Vermont
Current Conditions -  °F | °C
As of 1:53 AM on Thursday 23 Oct 2014 (Local Time) from KLEB Reporting Station
Light Rain Light Rain  
Wind Chill: 50°   Ceiling: 2600
Heat Index: 50°   Visibility: 10mi
Dew Point: 45°   Wind: 12mph
Humidity: 83%   Direction: 10°N
Pressure: 29.92"   Gusts: NA
Location:  43.82°N, 72.52°W
Report Text: KLEB 230553Z AUTO 01010KT 10SM -RA OVC026 10/07 A2992 RMK AO2 RAB14 SLP131 P0001 60002 T01000072 10106 20089 58019
Loading
Personal Weather Stations






























Interactive Weather Map
Tropical Storm Tracking
New forecast layout! Learn more

10-Day Weather Forecast

Advertisements
Track Severe Weather on mobile